Glasgow, MT (59230)

12:15 AM MST on February 13, 2016 (GMT -0700)
APRSWXNET | | Change Station
CLOSE
Current Station
Personal Weather Station
Location: Glasgow, MT
Elevation: 2211 ft
Nearby Weather Stations

Elev 2211 ft 48.19 °N, 106.61 °W | Updated 21 minutes ago

Overcast
Overcast
17 °F
Feels Like 0 °F
N
21
Wind Variable Wind from East
Gusts 26.0 mph

Today
High -- | Low -- °F
--% Chance of Precip.
Yesterday
High -- | Low -- °F
Precip. -- in
Pressure 30.21 in
Visibility 10.0 miles
Clouds Overcast 9500 ft
Windchill 0 °F
Dew Point 13 °F
Humidity 83%
Rainfall in
Snow Depth Not available.
7:16 AM 5:24 PM
Waxing Crescent, 28% visible
METAR KGGW 130653Z AUTO 11021KT 10SM OVC095 M08/M11 A3008 RMK AO2 PK WND 12026/0644 SLP229 T10781106 410221094
Pressure 30.21 in
Visibility 10.0 miles
Clouds Overcast 9500 ft
Windchill 0 °F
Dew Point 13 °F
Humidity 83%
Rainfall in
Snow Depth Not available.
7:16 AM 5:24 PM
Waxing Crescent, 28% visible
METAR KGGW 130653Z AUTO 11021KT 10SM OVC095 M08/M11 A3008 RMK AO2 PK WND 12026/0644 SLP229 T10781106 410221094

10-Day Weather Forecast

Almanac

Astronomy

Feb. 13, 2016 Rise Set
Actual Time
Civil Twilight
Nautical Twilight
Astronomical Twilight
Moon
Length of Visible Light
Length of Day
Tomorrow will be .
, % of the Moon is Illuminated

Today's Extremes

State Highs State Lows

Community

WunderPhotos

Upload Photos

1,892,526 photos uploaded!

WunderBlog® & News

Nearby

Air Quality

  Air Quality AQ Index Pollutant
Not available.

Snow Depth

Station Depth Elevation

Earthquake Activity

City Distance Mag. Time & Date
Minimum magnitude displayed is 2.5.

Coastal Water Temperatures

Place Temperature

Stations

Nearby Weather Stations

Station Location Temp. Windchill Dew Point Humidity Wind Precip. Elev Updated Type
                   

Watches & Warnings

There are currently no watches in effect.